createdAt,value
2018-07-23T00:02:01.710Z,20.11
2018-07-23T00:04:30.697Z,20.09
2018-07-23T00:06:59.812Z,20.05
2018-07-23T00:09:28.783Z,20.01
2018-07-23T00:11:57.760Z,20.00
2018-07-23T00:14:26.748Z,20.03
2018-07-23T00:16:55.720Z,19.99
2018-07-23T00:19:24.712Z,19.96
2018-07-23T00:21:53.753Z,19.90
2018-07-23T00:24:22.796Z,19.90
2018-07-23T00:26:51.760Z,19.82
2018-07-23T00:29:21.080Z,19.75
2018-07-23T00:31:50.123Z,19.69
2018-07-23T00:34:19.091Z,19.65
2018-07-23T00:36:48.072Z,19.68
2018-07-23T00:39:17.062Z,19.61
2018-07-23T00:41:46.162Z,19.48
2018-07-23T00:44:15.128Z,19.41
2018-07-23T00:46:44.160Z,19.38
2018-07-23T00:49:13.233Z,19.43
2018-07-23T00:51:42.333Z,19.42
2018-07-23T00:54:11.318Z,19.41
2018-07-23T00:56:40.428Z,19.34
2018-07-23T00:59:09.542Z,19.29
2018-07-23T01:01:38.550Z,19.24
2018-07-23T01:04:07.577Z,19.19
2018-07-23T01:06:36.596Z,19.17
2018-07-23T01:09:07.851Z,19.19
2018-07-23T01:11:37.180Z,19.22
2018-07-23T01:14:06.414Z,19.24
2018-07-23T01:16:35.524Z,19.26
2018-07-23T01:19:04.587Z,19.31
2018-07-23T01:21:33.716Z,19.43
2018-07-23T01:24:02.808Z,19.49
2018-07-23T01:26:31.871Z,19.51
2018-07-23T01:29:00.928Z,19.57
2018-07-23T01:31:29.920Z,19.64
2018-07-23T01:33:58.936Z,19.71
2018-07-23T01:36:27.956Z,19.76
2018-07-23T01:38:56.915Z,19.85
2018-07-23T01:41:25.948Z,19.91
2018-07-23T01:43:54.917Z,19.87
2018-07-23T01:46:23.895Z,19.79
2018-07-23T01:48:52.908Z,19.72
2018-07-23T01:51:21.939Z,19.69
2018-07-23T01:53:50.902Z,19.66
2018-07-23T01:56:19.868Z,19.68
2018-07-23T01:58:48.868Z,19.67
2018-07-23T02:01:18.088Z,19.63
2018-07-23T02:03:47.122Z,19.61
2018-07-23T02:06:16.152Z,19.66
2018-07-23T02:08:45.205Z,19.73
2018-07-23T02:11:14.280Z,19.70
2018-07-23T02:13:43.303Z,19.68
2018-07-23T02:16:12.339Z,19.71
2018-07-23T02:18:41.325Z,19.73
2018-07-23T02:21:10.376Z,19.77
2018-07-23T02:23:39.346Z,19.81
2018-07-23T02:26:08.448Z,19.86
2018-07-23T02:28:37.544Z,19.88
2018-07-23T02:31:06.702Z,19.90
2018-07-23T02:33:35.791Z,19.87
2018-07-23T02:36:04.784Z,19.87
2018-07-23T02:38:33.790Z,19.85
2018-07-23T02:41:02.796Z,19.77
2018-07-23T02:43:31.984Z,19.74
2018-07-23T02:46:01.041Z,19.71
2018-07-23T02:48:29.999Z,19.74
2018-07-23T02:50:59.064Z,19.77
2018-07-23T02:53:28.129Z,19.71
2018-07-23T02:55:57.168Z,19.73
2018-07-23T02:58:26.268Z,19.71
2018-07-23T03:00:55.325Z,19.71
2018-07-23T03:03:24.340Z,19.69
2018-07-23T03:05:53.536Z,19.69
2018-07-23T03:08:22.795Z,19.67
2018-07-23T03:10:51.776Z,19.68
2018-07-23T03:13:20.816Z,19.60
2018-07-23T03:15:49.889Z,19.54
2018-07-23T03:18:18.952Z,19.53
2018-07-23T03:20:47.940Z,19.57
2018-07-23T03:23:16.901Z,19.58
2018-07-23T03:25:45.883Z,19.57
2018-07-23T03:28:14.864Z,19.54
2018-07-23T03:30:43.921Z,19.59
2018-07-23T03:33:13.058Z,19.62
2018-07-23T03:35:42.161Z,19.63
2018-07-23T03:38:11.244Z,19.61
2018-07-23T03:40:40.300Z,19.61
2018-07-23T03:43:09.448Z,19.65
2018-07-23T03:45:38.540Z,19.67
2018-07-23T03:48:07.700Z,19.74
2018-07-23T03:50:36.819Z,19.78
2018-07-23T03:53:06.020Z,19.84
2018-07-23T03:55:35.080Z,19.89
2018-07-23T03:58:04.098Z,19.92
2018-07-23T04:00:33.221Z,19.99
2018-07-23T04:03:02.253Z,20.04
2018-07-23T04:05:31.413Z,20.07
2018-07-23T04:08:00.460Z,20.12
2018-07-23T04:10:29.485Z,20.09
2018-07-23T04:12:58.528Z,20.10
2018-07-23T04:15:27.568Z,20.17
2018-07-23T04:18:02.550Z,20.23
2018-07-23T04:20:33.132Z,20.26
2018-07-23T04:23:02.300Z,20.27
2018-07-23T04:25:31.585Z,20.31
2018-07-23T04:28:01.156Z,20.36
2018-07-23T04:30:30.207Z,20.41
2018-07-23T04:32:59.355Z,20.46
2018-07-23T04:35:28.463Z,20.63
2018-07-23T04:37:57.587Z,20.79
2018-07-23T04:40:26.620Z,20.97
2018-07-23T04:42:55.682Z,21.09
2018-07-23T04:45:24.733Z,21.22
2018-07-23T04:47:53.772Z,21.33
2018-07-23T04:50:22.871Z,21.46
2018-07-23T04:52:51.896Z,21.52
2018-07-23T04:55:20.928Z,21.51
2018-07-23T04:57:50.004Z,21.43
2018-07-23T05:00:19.107Z,21.40
2018-07-23T05:02:48.140Z,21.36
2018-07-23T05:05:17.163Z,21.37
2018-07-23T05:07:46.268Z,21.35
2018-07-23T05:10:15.296Z,21.18
2018-07-23T05:12:44.324Z,20.99
2018-07-23T05:15:13.381Z,20.89
2018-07-23T05:17:42.417Z,20.80
2018-07-23T05:20:11.544Z,20.72
2018-07-23T05:22:40.638Z,20.61
2018-07-23T05:25:09.688Z,20.56
2018-07-23T05:27:38.712Z,20.56
2018-07-23T05:30:07.811Z,20.57
2018-07-23T05:32:36.958Z,20.57
2018-07-23T05:35:06.085Z,20.64
2018-07-23T05:37:35.123Z,20.82
2018-07-23T05:40:04.208Z,20.96
2018-07-23T05:42:33.229Z,21.14
2018-07-23T05:45:02.421Z,21.29
2018-07-23T05:47:31.409Z,21.42
2018-07-23T05:50:00.409Z,21.58
2018-07-23T05:52:29.443Z,21.78
2018-07-23T05:54:58.540Z,21.90
2018-07-23T05:57:27.551Z,22.07
2018-07-23T05:59:56.572Z,22.17
2018-07-23T06:02:25.554Z,22.36
2018-07-23T06:04:54.548Z,22.62
2018-07-23T06:07:23.560Z,22.85
2018-07-23T06:09:52.523Z,23.13
2018-07-23T06:12:21.643Z,23.35
2018-07-23T06:14:50.603Z,23.49
2018-07-23T06:17:19.752Z,23.48
2018-07-23T06:19:48.806Z,23.48
2018-07-23T06:22:17.819Z,23.68
2018-07-23T06:24:47.136Z,23.52
2018-07-23T06:27:16.109Z,23.65
2018-07-23T06:29:45.124Z,23.71
2018-07-23T06:32:14.197Z,23.68
2018-07-23T06:34:43.267Z,23.59
2018-07-23T06:37:12.248Z,23.42
2018-07-23T06:39:41.273Z,23.41
2018-07-23T06:42:11.206Z,23.44
2018-07-23T06:44:40.155Z,23.46
2018-07-23T06:47:09.270Z,23.54
2018-07-23T06:49:38.301Z,23.77
2018-07-23T06:52:07.500Z,23.98
2018-07-23T06:54:36.529Z,24.23
2018-07-23T06:57:05.887Z,24.44
2018-07-23T06:59:35.373Z,24.81
2018-07-23T07:02:04.900Z,25.28
2018-07-23T07:04:33.989Z,25.72
2018-07-23T07:07:03.072Z,26.12
2018-07-23T07:09:32.124Z,26.32
2018-07-23T07:12:01.112Z,26.64
2018-07-23T07:14:30.101Z,26.66
2018-07-23T07:16:59.123Z,26.70
2018-07-23T07:19:28.209Z,27.06
2018-07-23T07:21:57.205Z,27.16
2018-07-23T07:24:26.278Z,27.09
2018-07-23T07:26:55.316Z,26.94
2018-07-23T07:29:25.271Z,26.55
2018-07-23T07:31:54.240Z,26.37
2018-07-23T07:34:23.207Z,26.54
2018-07-23T07:36:52.184Z,26.61
2018-07-23T07:39:21.232Z,26.87
2018-07-23T07:41:50.285Z,27.08
2018-07-23T07:44:19.308Z,27.27
2018-07-23T07:46:48.259Z,27.33
2018-07-23T07:49:17.224Z,27.07
2018-07-23T07:51:46.195Z,27.16
2018-07-23T07:54:15.171Z,27.39
2018-07-23T07:56:44.220Z,27.79
2018-07-23T07:59:13.365Z,27.69
2018-07-23T08:01:42.381Z,27.45
2018-07-23T08:04:11.355Z,27.20
2018-07-23T08:06:40.368Z,27.24
2018-07-23T08:09:10.225Z,27.57
2018-07-23T08:11:39.928Z,27.52
2018-07-23T08:14:09.148Z,27.20
2018-07-23T08:16:38.212Z,27.34
2018-07-23T08:19:07.255Z,27.60
2018-07-23T08:21:36.253Z,27.92
2018-07-23T08:24:05.292Z,28.28
2018-07-23T08:26:34.305Z,28.40
2018-07-23T08:29:03.393Z,28.51
2018-07-23T08:31:32.408Z,28.66
2018-07-23T08:34:01.456Z,28.65
2018-07-23T08:36:30.495Z,28.50
2018-07-23T08:38:59.518Z,28.46
2018-07-23T08:41:28.589Z,28.63
2018-07-23T08:43:57.600Z,28.52
2018-07-23T08:46:26.638Z,28.08
2018-07-23T08:48:55.620Z,28.32
2018-07-23T08:51:24.635Z,28.72
2018-07-23T08:53:53.663Z,29.31
2018-07-23T08:56:22.709Z,29.79
2018-07-23T08:58:51.760Z,29.84
2018-07-23T09:01:20.746Z,29.86
2018-07-23T09:03:49.723Z,29.79
2018-07-23T09:06:18.709Z,29.69
2018-07-23T09:08:47.752Z,30.32
2018-07-23T09:11:16.764Z,31.07
2018-07-23T09:13:45.728Z,31.22
2018-07-23T09:16:14.915Z,32.02
2018-07-23T09:18:43.907Z,32.40
2018-07-23T09:21:12.945Z,32.59
2018-07-23T09:23:47.679Z,31.94
2018-07-23T09:26:16.667Z,31.62
2018-07-23T09:28:45.718Z,31.65
2018-07-23T09:31:14.686Z,31.29
2018-07-23T09:33:43.661Z,31.35
2018-07-23T09:36:12.663Z,31.37
2018-07-23T09:38:41.839Z,31.00
2018-07-23T09:41:10.992Z,30.26
2018-07-23T09:43:40.033Z,29.83
2018-07-23T09:46:09.063Z,29.69
2018-07-23T09:48:38.281Z,29.32
2018-07-23T09:51:07.268Z,28.37
2018-07-23T09:53:37.444Z,27.76
2018-07-23T09:56:07.044Z,27.60
2018-07-23T09:58:36.067Z,27.80
2018-07-23T10:01:10.172Z,28.11
2018-07-23T10:03:39.196Z,28.73
2018-07-23T10:06:08.284Z,29.53
2018-07-23T10:08:37.296Z,30.48
2018-07-23T10:11:06.275Z,30.82
2018-07-23T10:13:35.276Z,30.63
2018-07-23T10:16:04.291Z,29.96
2018-07-23T10:18:33.418Z,29.30
2018-07-23T10:21:02.415Z,28.62
2018-07-23T10:23:31.468Z,28.16
2018-07-23T10:26:00.487Z,27.74
2018-07-23T10:28:29.447Z,27.60
2018-07-23T10:30:58.436Z,27.56
2018-07-23T10:33:27.427Z,27.55
2018-07-23T10:35:56.470Z,27.54
2018-07-23T10:38:25.468Z,27.74
2018-07-23T10:40:54.484Z,28.20
2018-07-23T10:43:23.468Z,28.87
2018-07-23T10:45:52.503Z,29.54
2018-07-23T10:48:21.608Z,29.93
2018-07-23T10:50:50.786Z,29.73
2018-07-23T10:53:19.979Z,29.66
2018-07-23T10:55:48.969Z,29.80
2018-07-23T10:58:17.961Z,29.61
2018-07-23T11:00:47.229Z,29.73
2018-07-23T11:03:16.197Z,29.56
2018-07-23T11:05:45.272Z,29.65
2018-07-23T11:08:14.321Z,29.99
2018-07-23T11:10:43.373Z,29.85
2018-07-23T11:13:12.360Z,29.66
2018-07-23T11:15:41.428Z,29.29
2018-07-23T11:18:10.509Z,29.16
2018-07-23T11:20:39.496Z,29.20
2018-07-23T11:23:08.572Z,29.71
2018-07-23T11:25:39.636Z,30.36
2018-07-23T11:28:06.907Z,30.13
2018-07-23T11:30:35.951Z,30.18
2018-07-23T11:33:04.963Z,30.42
2018-07-23T11:35:34.018Z,30.59
2018-07-23T11:38:02.995Z,30.53
2018-07-23T11:40:32.023Z,30.32
2018-07-23T11:43:01.013Z,30.48
2018-07-23T11:45:30.073Z,30.58
2018-07-23T11:47:59.113Z,30.53
2018-07-23T11:50:28.161Z,30.59
2018-07-23T11:52:57.241Z,30.17
2018-07-23T11:55:26.207Z,29.94
2018-07-23T11:57:55.308Z,29.73
2018-07-23T12:00:24.383Z,29.59
2018-07-23T12:02:53.363Z,29.65
2018-07-23T12:05:22.479Z,29.55
2018-07-23T12:07:51.529Z,29.28
2018-07-23T12:10:20.780Z,28.91
2018-07-23T12:12:49.851Z,27.91
2018-07-23T12:15:18.820Z,27.35
2018-07-23T12:17:47.876Z,26.97
2018-07-23T12:20:16.865Z,26.55
2018-07-23T12:22:45.852Z,26.25
2018-07-23T12:25:15.285Z,25.94
2018-07-23T12:27:44.371Z,25.68
2018-07-23T12:30:13.357Z,25.54
2018-07-23T12:32:42.354Z,25.36
2018-07-23T12:35:11.397Z,25.29
2018-07-23T12:37:40.437Z,25.16
2018-07-23T12:40:09.481Z,24.98
2018-07-23T12:42:38.457Z,24.73
2018-07-23T12:45:07.533Z,24.60
2018-07-23T12:47:36.599Z,24.63
2018-07-23T12:50:05.783Z,24.84
2018-07-23T12:52:34.783Z,25.31
2018-07-23T12:55:03.924Z,25.84
2018-07-23T12:57:32.905Z,26.21
2018-07-23T13:00:02.096Z,26.71
2018-07-23T13:02:31.042Z,27.23
2018-07-23T13:05:00.073Z,27.49
2018-07-23T13:07:29.146Z,27.58
2018-07-23T13:09:58.126Z,27.29
2018-07-23T13:12:27.468Z,27.06
2018-07-23T13:14:56.614Z,27.08
2018-07-23T13:17:25.539Z,27.24
2018-07-23T13:19:54.727Z,27.33
2018-07-23T13:22:23.767Z,27.52
2018-07-23T13:24:52.921Z,27.84
2018-07-23T13:27:22.025Z,27.76
2018-07-23T13:29:51.056Z,27.76
2018-07-23T13:32:20.057Z,27.55
2018-07-23T13:34:49.033Z,27.44
2018-07-23T13:37:18.027Z,27.17
2018-07-23T13:39:46.997Z,26.97
2018-07-23T13:42:16.090Z,26.97
2018-07-23T13:44:45.061Z,26.83
2018-07-23T13:47:14.053Z,27.00
2018-07-23T13:49:43.030Z,27.03
2018-07-23T13:52:12.123Z,26.89
2018-07-23T13:54:41.180Z,26.73
2018-07-23T13:57:10.204Z,26.46
2018-07-23T13:59:39.244Z,26.11
2018-07-23T14:02:08.236Z,25.82
2018-07-23T14:04:37.276Z,25.59
2018-07-23T14:07:06.365Z,25.79
2018-07-23T14:09:35.330Z,26.30
2018-07-23T14:12:04.316Z,26.66
2018-07-23T14:14:33.288Z,26.84
2018-07-23T14:17:02.341Z,26.80
2018-07-23T14:19:31.376Z,26.97
2018-07-23T14:22:00.421Z,27.10
2018-07-23T14:24:29.460Z,27.37
2018-07-23T14:26:58.528Z,27.39
2018-07-23T14:29:27.526Z,27.36
2018-07-23T14:31:56.524Z,27.20
2018-07-23T14:34:25.621Z,27.03
2018-07-23T14:36:54.656Z,26.83
2018-07-23T14:39:23.691Z,26.67
2018-07-23T14:41:52.720Z,26.48
2018-07-23T14:44:21.836Z,26.35
2018-07-23T14:46:50.884Z,26.15
2018-07-23T14:49:19.949Z,26.01
2018-07-23T14:51:49.055Z,25.86
2018-07-23T14:54:18.033Z,25.52
2018-07-23T14:56:47.396Z,25.31
2018-07-23T14:59:16.424Z,25.19
2018-07-23T15:01:45.407Z,25.15
2018-07-23T15:04:14.397Z,25.15
2018-07-23T15:06:43.379Z,25.20
2018-07-23T15:09:12.459Z,25.18
2018-07-23T15:11:41.466Z,25.16
2018-07-23T15:14:10.691Z,25.07
2018-07-23T15:16:40.533Z,24.96
2018-07-23T15:19:09.604Z,24.97
2018-07-23T15:21:38.735Z,24.96
2018-07-23T15:24:07.815Z,24.95
2018-07-23T15:26:37.421Z,24.85
2018-07-23T15:29:06.669Z,24.74
2018-07-23T15:31:37.213Z,24.68
2018-07-23T15:34:06.379Z,24.65
2018-07-23T15:36:35.520Z,24.68
2018-07-23T15:39:07.271Z,24.88
2018-07-23T15:41:36.416Z,25.17
2018-07-23T15:44:06.070Z,25.41
2018-07-23T15:46:35.074Z,25.66
2018-07-23T15:49:04.232Z,25.92
2018-07-23T15:51:34.910Z,26.08
2018-07-23T15:54:03.903Z,26.15
2018-07-23T15:56:32.879Z,26.05
2018-07-23T15:59:08.264Z,25.97
2018-07-23T16:01:37.296Z,25.92
2018-07-23T16:04:06.365Z,25.79
2018-07-23T16:06:35.420Z,25.74
2018-07-23T16:09:06.696Z,25.70
2018-07-23T16:11:35.676Z,25.58
2018-07-23T16:14:04.680Z,25.34
2018-07-23T16:16:33.655Z,25.12
2018-07-23T16:19:02.774Z,24.90
2018-07-23T16:21:31.704Z,24.74
2018-07-23T16:24:00.737Z,24.60
2018-07-23T16:26:29.991Z,24.50
2018-07-23T16:28:59.500Z,24.40
2018-07-23T16:31:28.508Z,24.36
2018-07-23T16:33:57.518Z,24.27
2018-07-23T16:36:26.543Z,24.21
2018-07-23T16:38:55.529Z,24.16
2018-07-23T16:41:24.551Z,24.04
2018-07-23T16:43:53.592Z,24.01
2018-07-23T16:46:22.656Z,23.94
2018-07-23T16:48:51.639Z,23.87
2018-07-23T16:51:20.605Z,23.80
2018-07-23T16:53:49.685Z,23.73
2018-07-23T16:56:18.663Z,23.63
2018-07-23T16:58:47.740Z,23.58
2018-07-23T17:01:16.712Z,23.55
2018-07-23T17:03:45.728Z,23.50
2018-07-23T17:06:14.707Z,23.39
2018-07-23T17:08:43.704Z,23.22
2018-07-23T17:11:12.726Z,23.10
2018-07-23T17:13:41.701Z,23.08
2018-07-23T17:16:10.695Z,23.07
2018-07-23T17:18:39.664Z,23.07
2018-07-23T17:21:09.562Z,23.04
2018-07-23T17:23:38.643Z,22.95
2018-07-23T17:26:07.625Z,22.83
2018-07-23T17:28:36.651Z,22.76
2018-07-23T17:31:05.644Z,22.73
2018-07-23T17:33:34.631Z,22.65
2018-07-23T17:36:03.756Z,22.54
2018-07-23T17:38:32.745Z,22.45
2018-07-23T17:41:01.823Z,22.45
2018-07-23T17:43:30.839Z,22.49
2018-07-23T17:45:59.821Z,22.48
2018-07-23T17:48:28.915Z,22.49
2018-07-23T17:50:57.875Z,22.45
2018-07-23T17:53:26.882Z,22.42
2018-07-23T17:55:55.868Z,22.43
2018-07-23T17:58:24.855Z,22.42
2018-07-23T18:00:53.875Z,22.38
2018-07-23T18:03:22.844Z,22.36
2018-07-23T18:05:51.939Z,22.39
2018-07-23T18:08:20.939Z,22.38
2018-07-23T18:10:49.945Z,22.36
2018-07-23T18:13:18.992Z,22.27
2018-07-23T18:15:48.032Z,22.19
2018-07-23T18:18:18.471Z,22.10
2018-07-23T18:20:47.456Z,22.00
2018-07-23T18:23:16.481Z,21.98
2018-07-23T18:25:45.515Z,21.95
2018-07-23T18:28:14.485Z,21.94
2018-07-23T18:30:43.491Z,21.88
2018-07-23T18:33:12.470Z,21.86
2018-07-23T18:35:41.577Z,21.82
2018-07-23T18:38:10.738Z,21.78
2018-07-23T18:40:39.843Z,21.76
2018-07-23T18:43:08.920Z,21.72
2018-07-23T18:45:37.913Z,21.69
2018-07-23T18:48:16.577Z,21.59
2018-07-23T18:50:45.596Z,21.53
2018-07-23T18:53:21.919Z,21.46
2018-07-23T18:55:51.135Z,21.45
2018-07-23T18:58:20.387Z,21.37
2018-07-23T19:00:49.441Z,21.31
2018-07-23T19:03:18.516Z,21.26
2018-07-23T19:05:47.727Z,21.16
2018-07-23T19:08:16.823Z,21.14
2018-07-23T19:10:45.881Z,21.15
2018-07-23T19:13:14.884Z,21.13
2018-07-23T19:15:43.928Z,21.11
2018-07-23T19:18:12.917Z,21.09
2018-07-23T19:20:41.900Z,21.13
2018-07-23T19:23:10.863Z,21.21
2018-07-23T19:25:39.923Z,21.28
2018-07-23T19:28:08.960Z,21.29
2018-07-23T19:30:37.945Z,21.27
2018-07-23T19:33:07.254Z,21.27
2018-07-23T19:35:36.353Z,21.24
2018-07-23T19:38:05.396Z,21.24
2018-07-23T19:40:34.368Z,21.25
2018-07-23T19:43:03.485Z,21.22
2018-07-23T19:45:32.455Z,21.12
2018-07-23T19:48:01.496Z,21.10
2018-07-23T19:50:30.492Z,21.09
2018-07-23T19:52:59.511Z,21.03
2018-07-23T19:55:28.594Z,21.07
2018-07-23T19:57:57.577Z,21.04
2018-07-23T20:00:26.636Z,21.05
2018-07-23T20:02:55.704Z,21.05
2018-07-23T20:05:24.726Z,21.07
2018-07-23T20:07:53.740Z,21.10
2018-07-23T20:10:22.699Z,21.07
2018-07-23T20:12:51.696Z,21.11
2018-07-23T20:15:20.684Z,21.09
2018-07-23T20:17:49.804Z,21.06
2018-07-23T20:20:18.870Z,20.94
2018-07-23T20:22:47.895Z,20.87
2018-07-23T20:25:16.957Z,20.82
2018-07-23T20:27:45.979Z,20.80
2018-07-23T20:30:15.001Z,20.86
2018-07-23T20:32:43.980Z,20.85
2018-07-23T20:35:13.099Z,20.74
2018-07-23T20:37:42.079Z,20.77
2018-07-23T20:40:11.111Z,20.77
2018-07-23T20:42:40.186Z,20.70
2018-07-23T20:45:09.267Z,20.69
2018-07-23T20:47:38.345Z,20.66
2018-07-23T20:50:07.421Z,20.65
2018-07-23T20:52:36.557Z,20.66
2018-07-23T20:55:05.563Z,20.68
2018-07-23T20:57:34.551Z,20.62
2018-07-23T21:00:03.681Z,20.62
2018-07-23T21:02:32.652Z,20.65
2018-07-23T21:05:01.660Z,20.67
2018-07-23T21:07:30.947Z,20.65
2018-07-23T21:10:00.021Z,20.63
2018-07-23T21:12:29.016Z,20.64
2018-07-23T21:14:58.242Z,20.60
2018-07-23T21:17:27.248Z,20.60
2018-07-23T21:19:56.243Z,20.48
2018-07-23T21:22:25.408Z,20.42
2018-07-23T21:24:54.465Z,20.41
2018-07-23T21:27:23.521Z,20.43
2018-07-23T21:29:52.498Z,20.45
2018-07-23T21:32:21.555Z,20.45
2018-07-23T21:34:50.541Z,20.47
2018-07-23T21:37:19.596Z,20.43
2018-07-23T21:39:48.640Z,20.46
2018-07-23T21:42:17.947Z,20.48
2018-07-23T21:44:47.043Z,20.35
2018-07-23T21:47:16.029Z,20.26
2018-07-23T21:49:45.045Z,20.23
2018-07-23T21:52:14.120Z,20.25
2018-07-23T21:54:43.089Z,20.23
2018-07-23T21:57:12.224Z,20.25
2018-07-23T21:59:41.287Z,20.27
2018-07-23T22:02:10.812Z,20.28
2018-07-23T22:04:39.888Z,20.28
2018-07-23T22:07:08.989Z,20.32
2018-07-23T22:09:38.000Z,20.33
2018-07-23T22:12:07.060Z,20.33
2018-07-23T22:14:36.143Z,20.36
2018-07-23T22:17:05.128Z,20.37
2018-07-23T22:19:34.138Z,20.31
2018-07-23T22:22:03.227Z,20.33
2018-07-23T22:24:32.292Z,20.35
2018-07-23T22:27:01.297Z,20.38
2018-07-23T22:29:30.271Z,20.36
2018-07-23T22:31:59.311Z,20.39
2018-07-23T22:34:28.276Z,20.33
2018-07-23T22:36:57.349Z,20.31
2018-07-23T22:39:26.341Z,20.24
2018-07-23T22:41:55.383Z,20.19
2018-07-23T22:44:24.407Z,20.19
2018-07-23T22:46:53.404Z,20.19
2018-07-23T22:49:22.523Z,20.24
2018-07-23T22:51:51.567Z,20.20
2018-07-23T22:54:20.523Z,20.18
2018-07-23T22:56:49.557Z,20.22
2018-07-23T22:59:18.596Z,20.22
2018-07-23T23:01:47.744Z,20.20
2018-07-23T23:04:16.717Z,20.22
2018-07-23T23:06:45.833Z,20.25
2018-07-23T23:09:14.883Z,20.28
2018-07-23T23:11:43.847Z,20.24
2018-07-23T23:14:12.892Z,20.22
2018-07-23T23:16:41.912Z,20.14
2018-07-23T23:19:13.760Z,20.09
2018-07-23T23:21:42.752Z,20.08
2018-07-23T23:24:11.807Z,20.06
2018-07-23T23:26:40.778Z,19.99
2018-07-23T23:29:09.939Z,19.90
2018-07-23T23:31:38.940Z,19.84
2018-07-23T23:34:07.928Z,19.85
2018-07-23T23:36:36.955Z,19.90
2018-07-23T23:39:09.217Z,19.92
2018-07-23T23:41:38.356Z,19.94
2018-07-23T23:44:07.440Z,19.98
2018-07-23T23:46:36.620Z,20.01
2018-07-23T23:49:05.751Z,19.93
2018-07-23T23:51:34.734Z,19.89
2018-07-23T23:54:03.832Z,19.89
2018-07-23T23:56:32.884Z,19.89
2018-07-23T23:59:01.971Z,19.87
